createdAt,value
2022-08-07T00:03:16.052Z,1.20
2022-08-07T00:08:20.104Z,2.25
2022-08-07T00:13:26.933Z,1.52
2022-08-07T00:18:30.876Z,1.40
2022-08-07T00:23:36.882Z,1.55
2022-08-07T00:28:46.196Z,1.40
2022-08-07T00:33:59.459Z,1.10
2022-08-07T00:39:03.193Z,1.20
2022-08-07T00:44:08.475Z,1.33
2022-08-07T00:49:12.502Z,1.38
2022-08-07T00:54:32.638Z,1.50
2022-08-07T00:59:38.907Z,1.30
2022-08-07T01:04:43.940Z,1.48
2022-08-07T01:10:04.474Z,1.50
2022-08-07T01:15:17.680Z,1.20
2022-08-07T01:20:36.259Z,1.20
2022-08-07T01:25:55.479Z,1.10
2022-08-07T01:31:02.854Z,1.27
2022-08-07T01:36:10.771Z,1.20
2022-08-07T01:41:26.316Z,1.40
2022-08-07T01:46:34.203Z,1.40
2022-08-07T01:52:03.276Z,1.77
2022-08-07T01:57:08.978Z,1.58
2022-08-07T02:03:18.206Z,1.20
2022-08-07T02:08:01.594Z,1.58
2022-08-07T02:13:14.426Z,1.20
2022-08-07T02:18:30.801Z,1.30
2022-08-07T02:23:37.871Z,1.67
2022-08-07T02:28:44.562Z,1.23
2022-08-07T02:34:03.612Z,1.50
2022-08-07T02:39:42.580Z,1.33
2022-08-07T02:44:48.289Z,1.95
2022-08-07T02:49:59.643Z,1.73
2022-08-07T02:55:27.434Z,2.38
2022-08-07T03:00:36.051Z,2.42
2022-08-07T03:05:44.791Z,2.70
2022-08-07T03:10:49.806Z,2.60
2022-08-07T03:16:01.068Z,2.95
2022-08-07T03:21:11.359Z,3.10
2022-08-07T03:26:21.268Z,2.95
2022-08-07T03:31:42.278Z,3.17
2022-08-07T03:36:48.222Z,2.92
2022-08-07T03:41:53.371Z,3.55
2022-08-07T03:47:11.003Z,2.80
2022-08-07T03:52:22.919Z,3.13
2022-08-07T03:58:32.611Z,2.40
2022-08-07T04:03:03.940Z,2.90
2022-08-07T04:08:16.103Z,2.83
2022-08-07T04:13:27.568Z,3.55
2022-08-07T04:18:59.423Z,3.50
2022-08-07T04:24:05.775Z,3.22
2022-08-07T04:29:12.708Z,3.47
2022-08-07T04:34:27.541Z,3.45
2022-08-07T04:39:38.439Z,3.17
2022-08-07T04:44:54.622Z,2.75
2022-08-07T04:50:18.194Z,2.97
2022-08-07T04:58:24.123Z,2.65
2022-08-07T05:01:22.642Z,2.72
2022-08-07T05:06:51.793Z,2.78
2022-08-07T05:12:06.103Z,2.80
2022-08-07T05:17:13.083Z,2.42
2022-08-07T05:22:41.094Z,2.10
2022-08-07T05:28:03.412Z,2.75
2022-08-07T05:33:14.919Z,2.70
2022-08-07T05:38:58.095Z,1.80
2022-08-07T05:44:08.344Z,2.22
2022-08-07T05:54:44.063Z,2.53
2022-08-07T05:59:57.656Z,2.38
2022-08-07T06:05:07.544Z,2.80
2022-08-07T06:10:17.876Z,2.42
2022-08-07T06:15:41.979Z,2.40
2022-08-07T06:20:51.150Z,2.03
2022-08-07T06:26:16.897Z,2.00
2022-08-07T06:31:20.936Z,2.10
2022-08-07T06:36:35.437Z,2.00
2022-08-07T06:42:01.063Z,1.92
2022-08-07T06:47:26.883Z,2.08
2022-08-07T06:52:37.038Z,1.80
2022-08-07T06:57:52.090Z,2.25
2022-08-07T07:03:10.963Z,2.10
2022-08-07T07:08:25.484Z,2.40
2022-08-07T07:13:56.331Z,1.98
2022-08-07T07:19:33.915Z,1.70
2022-08-07T07:24:29.963Z,1.73
2022-08-07T07:30:07.371Z,1.80
2022-08-07T07:35:06.156Z,1.92
2022-08-07T07:40:15.879Z,2.05
2022-08-07T07:46:40.571Z,1.77
2022-08-07T07:50:52.489Z,1.95
2022-08-07T07:56:00.594Z,2.15
2022-08-07T08:02:03.021Z,1.92
2022-08-07T08:06:32.895Z,2.20
2022-08-07T08:11:59.184Z,2.08
2022-08-07T08:17:56.417Z,2.08
2022-08-07T08:22:54.252Z,1.88
2022-08-07T08:28:04.718Z,1.60
2022-08-07T08:33:16.906Z,1.73
2022-08-07T08:38:29.319Z,1.83
2022-08-07T08:43:42.060Z,1.60
2022-08-07T08:48:56.413Z,1.15
2022-08-07T08:54:07.513Z,1.30
2022-08-07T08:59:18.666Z,1.58
2022-08-07T09:04:33.653Z,1.40
2022-08-07T09:09:56.908Z,1.25
2022-08-07T09:16:23.193Z,1.20
2022-08-07T09:20:58.430Z,1.43
2022-08-07T09:26:20.841Z,1.70
2022-08-07T09:31:33.717Z,1.20
2022-08-07T09:36:49.990Z,1.10
2022-08-07T09:42:07.683Z,1.17
2022-08-07T09:47:59.517Z,1.10
2022-08-07T09:52:54.052Z,1.00
2022-08-07T09:58:32.279Z,1.17
2022-08-07T10:04:06.535Z,1.00
2022-08-07T10:09:42.710Z,0.90
2022-08-07T10:15:25.143Z,1.20
2022-08-07T10:20:38.437Z,1.00
2022-08-07T10:25:57.820Z,1.00
2022-08-07T10:31:17.755Z,0.80
2022-08-07T10:36:39.611Z,0.85
2022-08-07T10:42:00.447Z,0.80
2022-08-07T10:47:26.967Z,1.08
2022-08-07T10:52:55.269Z,0.70
2022-08-07T10:58:10.246Z,0.77
2022-08-07T11:03:27.915Z,1.00
2022-08-07T11:08:40.917Z,0.60
2022-08-07T11:14:45.762Z,0.80
2022-08-07T11:19:21.659Z,0.88
2022-08-07T11:24:45.555Z,1.02
2022-08-07T11:30:17.529Z,0.95
2022-08-07T11:35:26.730Z,0.80
2022-08-07T11:40:49.466Z,0.77
2022-08-07T11:46:10.864Z,0.80
2022-08-07T11:51:40.863Z,1.00
2022-08-07T11:56:56.468Z,0.80
2022-08-07T12:02:29.979Z,0.80
2022-08-07T12:07:40.156Z,0.77
2022-08-07T12:12:49.043Z,0.93
2022-08-07T12:18:08.052Z,0.73
2022-08-07T12:24:05.517Z,0.70
2022-08-07T12:28:54.226Z,0.60
2022-08-07T12:34:01.759Z,0.93
2022-08-07T12:39:36.919Z,0.73
2022-08-07T12:44:32.105Z,0.82
2022-08-07T12:49:51.603Z,0.90
2022-08-07T12:55:05.246Z,0.70
2022-08-07T13:00:16.311Z,0.90
2022-08-07T13:06:03.939Z,0.60
2022-08-07T13:11:31.257Z,0.70
2022-08-07T13:17:05.750Z,0.60
2022-08-07T13:22:19.785Z,0.63
2022-08-07T13:28:11.076Z,0.68
2022-08-07T13:34:14.748Z,0.70
2022-08-07T13:38:45.930Z,0.82
2022-08-07T13:43:55.911Z,0.70
2022-08-07T13:49:04.180Z,0.70
2022-08-07T13:54:16.514Z,0.68
2022-08-07T13:59:31.269Z,0.70
2022-08-07T14:04:49.436Z,0.65
2022-08-07T14:10:12.170Z,0.68
2022-08-07T14:15:31.858Z,0.40
2022-08-07T14:20:49.281Z,0.68
2022-08-07T14:26:05.617Z,0.60
2022-08-07T14:31:14.578Z,0.60
2022-08-07T14:36:21.816Z,0.70
2022-08-07T14:41:34.094Z,0.40
2022-08-07T14:47:08.941Z,0.50
2022-08-07T14:52:24.461Z,0.50
2022-08-07T14:57:58.003Z,0.43
2022-08-07T15:03:00.276Z,0.60
2022-08-07T15:08:32.363Z,0.50
2022-08-07T15:13:48.138Z,0.82
2022-08-07T15:18:56.680Z,0.60
2022-08-07T15:25:13.486Z,0.70
2022-08-07T15:30:10.333Z,0.60
2022-08-07T15:35:05.271Z,0.70
2022-08-07T15:40:20.502Z,0.50
2022-08-07T15:45:55.897Z,0.63
2022-08-07T15:51:09.903Z,0.73
2022-08-07T15:56:15.972Z,0.57
2022-08-07T16:01:38.844Z,0.80
2022-08-07T16:06:50.063Z,0.80
2022-08-07T16:12:06.770Z,0.95
2022-08-07T16:18:01.947Z,0.93
2022-08-07T16:23:11.788Z,1.17
2022-08-07T16:30:07.300Z,1.20
2022-08-07T16:34:07.398Z,1.20
2022-08-07T16:39:40.189Z,1.25
2022-08-07T16:46:33.573Z,1.17
2022-08-07T16:51:20.938Z,1.05
2022-08-07T16:56:37.440Z,1.50
2022-08-07T17:01:52.254Z,1.20
2022-08-07T17:07:10.896Z,1.00
2022-08-07T17:12:35.662Z,1.25
2022-08-07T17:17:50.437Z,1.10
2022-08-07T17:23:03.892Z,1.00
2022-08-07T17:28:19.821Z,1.25
2022-08-07T17:33:39.098Z,1.30
2022-08-07T17:39:01.746Z,1.17
2022-08-07T17:44:41.330Z,0.98
2022-08-07T17:49:52.859Z,0.73
2022-08-07T17:55:06.109Z,0.93
2022-08-07T18:00:14.592Z,1.35
2022-08-07T18:06:01.304Z,0.80
2022-08-07T18:12:08.289Z,1.02
2022-08-07T18:16:58.296Z,0.90
2022-08-07T18:22:15.123Z,1.00
2022-08-07T18:27:39.226Z,0.90
2022-08-07T18:33:28.324Z,0.70
2022-08-07T18:38:56.457Z,1.10
2022-08-07T18:44:28.694Z,0.90
2022-08-07T18:50:33.022Z,0.90
2022-08-07T18:55:42.379Z,1.40
2022-08-07T19:00:55.109Z,1.17
2022-08-07T19:06:08.263Z,1.08
2022-08-07T19:11:35.673Z,1.15
2022-08-07T19:17:09.305Z,1.30
2022-08-07T19:22:31.379Z,0.90
2022-08-07T19:28:58.035Z,1.15
2022-08-07T19:33:13.102Z,1.20
2022-08-07T19:38:20.626Z,1.23
2022-08-07T19:43:49.976Z,1.35
2022-08-07T19:49:00.666Z,1.02
2022-08-07T19:54:33.107Z,1.40
2022-08-07T19:59:39.694Z,1.45
2022-08-07T20:04:49.343Z,1.23
2022-08-07T20:10:35.780Z,1.50
2022-08-07T20:15:23.310Z,1.17
2022-08-07T20:20:35.046Z,1.13
2022-08-07T20:25:52.893Z,1.63
2022-08-07T20:30:58.136Z,1.80
2022-08-07T20:36:07.488Z,1.75
2022-08-07T20:41:12.949Z,1.63
2022-08-07T20:46:25.921Z,1.50
2022-08-07T20:51:40.691Z,1.40
2022-08-07T20:56:56.552Z,1.38
2022-08-07T21:02:05.083Z,1.60
2022-08-07T21:07:29.506Z,1.55
2022-08-07T21:12:36.820Z,1.88
2022-08-07T21:18:02.603Z,1.73
2022-08-07T21:23:19.390Z,2.00
2022-08-07T21:28:49.434Z,1.27
2022-08-07T21:34:03.954Z,2.10
2022-08-07T21:39:48.078Z,1.50
2022-08-07T21:44:52.657Z,1.80
2022-08-07T21:50:03.624Z,2.00
2022-08-07T21:55:30.356Z,1.75
2022-08-07T22:00:34.853Z,1.85
2022-08-07T22:05:49.765Z,1.77
2022-08-07T22:11:00.074Z,1.98
2022-08-07T22:16:39.867Z,1.77
2022-08-07T22:22:02.031Z,1.90
2022-08-07T22:27:11.858Z,2.38
2022-08-07T22:32:21.722Z,1.90
2022-08-07T22:38:03.647Z,1.95
2022-08-07T22:43:10.756Z,1.52
2022-08-07T22:48:55.263Z,1.80
2022-08-07T22:54:07.644Z,1.92
2022-08-07T22:59:49.778Z,2.08
2022-08-07T23:06:07.757Z,2.35
2022-08-07T23:10:49.589Z,2.25
2022-08-07T23:16:39.264Z,2.15
2022-08-07T23:21:38.870Z,2.40
2022-08-07T23:27:07.758Z,2.38
2022-08-07T23:34:21.310Z,2.33
2022-08-07T23:38:19.091Z,2.97
2022-08-07T23:44:00.268Z,2.97
2022-08-07T23:49:49.774Z,3.03
2022-08-07T23:55:04.569Z,3.13
